Silver Spring, Maryland
Current Conditions -  °F | °C
As of 7:45 AM on Wednesday 26 Nov 2014 (Local Time) from KCGS Reporting Station
Overcast Overcast  
Wind Chill: 43°   Ceiling: 1400
Heat Index: 43°   Visibility: 7mi
Dew Point: 39°   Wind: 0mph
Humidity: 87%   Direction: NA
Pressure: 30.08"   Gusts: NA
Location:  39°N, 77.03°W
Report Text: KCGS 261245Z AUTO 00000KT 7SM BKN014 BKN020 OVC027 06/04 A3008 RMK AO1
Loading
Personal Weather Stations






























Interactive Weather Map New forecast layout! Learn more

10-Day Weather Forecast

Advertisements
Track Severe Weather on mobile